sensor_id;sensor_type;location;lat;lon;timestamp;P1;durP1;ratioP1;P2;durP2;ratioP2
29478;SDS011;16437;41.836;23.480;2022-12-05T00:02:55;18.27;;;12.17;;
29478;SDS011;16437;41.836;23.480;2022-12-05T00:08:21;15.78;;;10.90;;
29478;SDS011;16437;41.836;23.480;2022-12-05T00:13:48;18.42;;;11.60;;
29478;SDS011;16437;41.836;23.480;2022-12-05T00:19:16;16.62;;;10.80;;
29478;SDS011;16437;41.836;23.480;2022-12-05T00:24:42;16.90;;;11.05;;
29478;SDS011;16437;41.836;23.480;2022-12-05T00:30:08;15.40;;;10.85;;
29478;SDS011;16437;41.836;23.480;2022-12-05T00:35:35;15.70;;;10.05;;
29478;SDS011;16437;41.836;23.480;2022-12-05T00:41:05;15.88;;;11.00;;
29478;SDS011;16437;41.836;23.480;2022-12-05T00:46:36;16.67;;;11.08;;
29478;SDS011;16437;41.836;23.480;2022-12-05T00:52:03;15.83;;;10.98;;
29478;SDS011;16437;41.836;23.480;2022-12-05T00:57:30;15.93;;;10.68;;
29478;SDS011;16437;41.836;23.480;2022-12-05T01:02:57;15.78;;;10.70;;
29478;SDS011;16437;41.836;23.480;2022-12-05T01:08:23;14.40;;;10.58;;
29478;SDS011;16437;41.836;23.480;2022-12-05T01:13:50;16.20;;;11.15;;
29478;SDS011;16437;41.836;23.480;2022-12-05T01:19:19;16.05;;;10.32;;
29478;SDS011;16437;41.836;23.480;2022-12-05T01:24:49;15.65;;;10.35;;
29478;SDS011;16437;41.836;23.480;2022-12-05T01:30:16;14.90;;;10.20;;
29478;SDS011;16437;41.836;23.480;2022-12-05T01:35:44;14.18;;;9.83;;
29478;SDS011;16437;41.836;23.480;2022-12-05T01:41:12;17.20;;;10.85;;
29478;SDS011;16437;41.836;23.480;2022-12-05T01:46:46;15.15;;;10.43;;
29478;SDS011;16437;41.836;23.480;2022-12-05T01:52:15;15.13;;;10.28;;
29478;SDS011;16437;41.836;23.480;2022-12-05T01:57:43;14.05;;;10.03;;
29478;SDS011;16437;41.836;23.480;2022-12-05T02:03:17;13.70;;;9.75;;
29478;SDS011;16437;41.836;23.480;2022-12-05T02:08:42;13.72;;;9.95;;
29478;SDS011;16437;41.836;23.480;2022-12-05T02:25:49;15.60;;;10.53;;
29478;SDS011;16437;41.836;23.480;2022-12-05T02:31:36;13.55;;;9.95;;
29478;SDS011;16437;41.836;23.480;2022-12-05T02:37:49;15.45;;;10.43;;
29478;SDS011;16437;41.836;23.480;2022-12-05T02:42:44;15.72;;;10.60;;
29478;SDS011;16437;41.836;23.480;2022-12-05T02:48:20;15.10;;;9.75;;
29478;SDS011;16437;41.836;23.480;2022-12-05T02:53:48;12.75;;;9.08;;
29478;SDS011;16437;41.836;23.480;2022-12-05T02:59:16;13.15;;;9.05;;
29478;SDS011;16437;41.836;23.480;2022-12-05T03:04:42;13.13;;;9.10;;
29478;SDS011;16437;41.836;23.480;2022-12-05T03:10:09;14.18;;;9.30;;
29478;SDS011;16437;41.836;23.480;2022-12-05T03:15:41;15.88;;;10.10;;
29478;SDS011;16437;41.836;23.480;2022-12-05T03:32:56;13.00;;;9.13;;
29478;SDS011;16437;41.836;23.480;2022-12-05T03:44:13;13.40;;;9.30;;
29478;SDS011;16437;41.836;23.480;2022-12-05T03:49:39;12.90;;;8.93;;
29478;SDS011;16437;41.836;23.480;2022-12-05T03:55:07;12.43;;;8.60;;
29478;SDS011;16437;41.836;23.480;2022-12-05T04:00:39;13.15;;;8.58;;
29478;SDS011;16437;41.836;23.480;2022-12-05T04:11:56;12.50;;;8.50;;
29478;SDS011;16437;41.836;23.480;2022-12-05T04:17:42;10.70;;;7.85;;
29478;SDS011;16437;41.836;23.480;2022-12-05T04:23:14;10.58;;;7.90;;
29478;SDS011;16437;41.836;23.480;2022-12-05T04:28:43;11.38;;;7.90;;
29478;SDS011;16437;41.836;23.480;2022-12-05T04:34:16;10.95;;;7.55;;
29478;SDS011;16437;41.836;23.480;2022-12-05T04:39:53;11.15;;;7.83;;
29478;SDS011;16437;41.836;23.480;2022-12-05T04:45:24;11.73;;;8.00;;
29478;SDS011;16437;41.836;23.480;2022-12-05T04:50:52;10.25;;;7.67;;
29478;SDS011;16437;41.836;23.480;2022-12-05T04:56:20;11.28;;;7.87;;
29478;SDS011;16437;41.836;23.480;2022-12-05T05:01:54;10.13;;;7.50;;
29478;SDS011;16437;41.836;23.480;2022-12-05T05:07:18;10.53;;;7.30;;
29478;SDS011;16437;41.836;23.480;2022-12-05T05:12:45;9.75;;;6.50;;
29478;SDS011;16437;41.836;23.480;2022-12-05T05:18:11;8.98;;;6.37;;
29478;SDS011;16437;41.836;23.480;2022-12-05T05:23:38;9.23;;;6.25;;
29478;SDS011;16437;41.836;23.480;2022-12-05T05:29:04;8.20;;;6.12;;
29478;SDS011;16437;41.836;23.480;2022-12-05T05:34:32;8.10;;;5.92;;
29478;SDS011;16437;41.836;23.480;2022-12-05T05:39:58;7.90;;;5.72;;
29478;SDS011;16437;41.836;23.480;2022-12-05T05:45:25;8.60;;;6.10;;
29478;SDS011;16437;41.836;23.480;2022-12-05T05:50:51;10.00;;;6.42;;
29478;SDS011;16437;41.836;23.480;2022-12-05T05:56:18;8.85;;;6.03;;
29478;SDS011;16437;41.836;23.480;2022-12-05T06:01:46;8.35;;;6.10;;
29478;SDS011;16437;41.836;23.480;2022-12-05T06:07:12;8.78;;;6.33;;
29478;SDS011;16437;41.836;23.480;2022-12-05T06:12:38;9.05;;;6.30;;
29478;SDS011;16437;41.836;23.480;2022-12-05T06:18:05;9.43;;;6.42;;
29478;SDS011;16437;41.836;23.480;2022-12-05T06:23:32;10.70;;;6.22;;
29478;SDS011;16437;41.836;23.480;2022-12-05T06:28:59;9.88;;;6.53;;
29478;SDS011;16437;41.836;23.480;2022-12-05T06:34:25;10.18;;;6.60;;
29478;SDS011;16437;41.836;23.480;2022-12-05T06:39:52;11.75;;;7.10;;
29478;SDS011;16437;41.836;23.480;2022-12-05T06:45:19;10.68;;;6.90;;
29478;SDS011;16437;41.836;23.480;2022-12-05T06:50:49;9.58;;;6.62;;
29478;SDS011;16437;41.836;23.480;2022-12-05T06:56:17;9.90;;;6.37;;
29478;SDS011;16437;41.836;23.480;2022-12-05T07:01:44;9.10;;;6.17;;
29478;SDS011;16437;41.836;23.480;2022-12-05T07:07:10;10.10;;;6.78;;
29478;SDS011;16437;41.836;23.480;2022-12-05T07:12:37;10.40;;;6.80;;
29478;SDS011;16437;41.836;23.480;2022-12-05T07:18:03;9.83;;;6.90;;
29478;SDS011;16437;41.836;23.480;2022-12-05T07:23:31;10.75;;;6.15;;
29478;SDS011;16437;41.836;23.480;2022-12-05T07:28:58;8.75;;;6.15;;
29478;SDS011;16437;41.836;23.480;2022-12-05T07:34:24;10.30;;;6.83;;
29478;SDS011;16437;41.836;23.480;2022-12-05T07:39:51;12.70;;;7.60;;
29478;SDS011;16437;41.836;23.480;2022-12-05T07:45:18;13.55;;;7.28;;
29478;SDS011;16437;41.836;23.480;2022-12-05T07:50:45;12.07;;;7.47;;
29478;SDS011;16437;41.836;23.480;2022-12-05T07:56:12;10.70;;;7.25;;
29478;SDS011;16437;41.836;23.480;2022-12-05T08:01:40;13.18;;;7.58;;
29478;SDS011;16437;41.836;23.480;2022-12-05T08:07:08;13.00;;;7.75;;
29478;SDS011;16437;41.836;23.480;2022-12-05T08:12:35;12.25;;;7.78;;
29478;SDS011;16437;41.836;23.480;2022-12-05T08:18:02;14.10;;;8.65;;
29478;SDS011;16437;41.836;23.480;2022-12-05T08:23:29;15.65;;;8.30;;
29478;SDS011;16437;41.836;23.480;2022-12-05T08:28:57;13.35;;;8.78;;
29478;SDS011;16437;41.836;23.480;2022-12-05T08:34:34;14.95;;;8.63;;
29478;SDS011;16437;41.836;23.480;2022-12-05T08:40:00;11.95;;;8.48;;
29478;SDS011;16437;41.836;23.480;2022-12-05T08:45:27;17.42;;;9.25;;
29478;SDS011;16437;41.836;23.480;2022-12-05T08:50:54;15.05;;;9.00;;
29478;SDS011;16437;41.836;23.480;2022-12-05T08:56:20;14.78;;;8.98;;
29478;SDS011;16437;41.836;23.480;2022-12-05T09:01:48;15.08;;;9.55;;
29478;SDS011;16437;41.836;23.480;2022-12-05T09:07:15;15.32;;;10.03;;
29478;SDS011;16437;41.836;23.480;2022-12-05T09:12:41;16.05;;;10.15;;
29478;SDS011;16437;41.836;23.480;2022-12-05T09:18:08;16.27;;;10.80;;
29478;SDS011;16437;41.836;23.480;2022-12-05T09:23:36;17.87;;;11.25;;
29478;SDS011;16437;41.836;23.480;2022-12-05T09:29:02;17.35;;;10.72;;
29478;SDS011;16437;41.836;23.480;2022-12-05T09:34:29;15.63;;;10.23;;
29478;SDS011;16437;41.836;23.480;2022-12-05T09:39:57;19.95;;;12.07;;
29478;SDS011;16437;41.836;23.480;2022-12-05T09:45:32;17.32;;;11.28;;
29478;SDS011;16437;41.836;23.480;2022-12-05T09:50:56;18.95;;;11.22;;
29478;SDS011;16437;41.836;23.480;2022-12-05T09:56:28;20.20;;;11.18;;
29478;SDS011;16437;41.836;23.480;2022-12-05T10:07:42;21.40;;;12.00;;
29478;SDS011;16437;41.836;23.480;2022-12-05T10:19:05;20.17;;;12.23;;
29478;SDS011;16437;41.836;23.480;2022-12-05T10:24:51;18.95;;;11.95;;
29478;SDS011;16437;41.836;23.480;2022-12-05T10:30:16;18.65;;;11.63;;
29478;SDS011;16437;41.836;23.480;2022-12-05T10:35:44;18.92;;;12.43;;
29478;SDS011;16437;41.836;23.480;2022-12-05T10:41:13;19.45;;;12.13;;
29478;SDS011;16437;41.836;23.480;2022-12-05T10:46:39;19.27;;;11.60;;
29478;SDS011;16437;41.836;23.480;2022-12-05T10:52:06;18.30;;;11.90;;
29478;SDS011;16437;41.836;23.480;2022-12-05T10:57:34;18.32;;;11.85;;
29478;SDS011;16437;41.836;23.480;2022-12-05T11:03:02;18.37;;;12.03;;
29478;SDS011;16437;41.836;23.480;2022-12-05T11:08:30;18.50;;;12.45;;
29478;SDS011;16437;41.836;23.480;2022-12-05T11:14:06;19.32;;;12.47;;
29478;SDS011;16437;41.836;23.480;2022-12-05T11:19:47;19.65;;;12.30;;
29478;SDS011;16437;41.836;23.480;2022-12-05T11:25:30;19.85;;;12.53;;
29478;SDS011;16437;41.836;23.480;2022-12-05T11:36:45;21.23;;;12.40;;
29478;SDS011;16437;41.836;23.480;2022-12-05T11:42:15;17.37;;;11.50;;
29478;SDS011;16437;41.836;23.480;2022-12-05T11:47:52;19.52;;;12.25;;
29478;SDS011;16437;41.836;23.480;2022-12-05T11:58:52;18.95;;;12.47;;
29478;SDS011;16437;41.836;23.480;2022-12-05T12:10:32;24.25;;;14.65;;
29478;SDS011;16437;41.836;23.480;2022-12-05T12:16:05;22.67;;;13.75;;
29478;SDS011;16437;41.836;23.480;2022-12-05T12:21:53;22.42;;;13.80;;
29478;SDS011;16437;41.836;23.480;2022-12-05T12:33:22;21.77;;;13.95;;
29478;SDS011;16437;41.836;23.480;2022-12-05T12:38:50;22.77;;;13.60;;
29478;SDS011;16437;41.836;23.480;2022-12-05T12:50:32;22.60;;;14.80;;
29478;SDS011;16437;41.836;23.480;2022-12-05T13:01:40;21.52;;;13.85;;
29478;SDS011;16437;41.836;23.480;2022-12-05T13:07:12;21.93;;;13.98;;
29478;SDS011;16437;41.836;23.480;2022-12-05T13:12:40;22.07;;;13.55;;
29478;SDS011;16437;41.836;23.480;2022-12-05T13:18:11;21.52;;;14.18;;
29478;SDS011;16437;41.836;23.480;2022-12-05T13:23:45;20.80;;;14.05;;
29478;SDS011;16437;41.836;23.480;2022-12-05T13:29:24;21.75;;;13.65;;
29478;SDS011;16437;41.836;23.480;2022-12-05T13:34:48;21.15;;;13.72;;
29478;SDS011;16437;41.836;23.480;2022-12-05T13:40:32;21.87;;;14.43;;
29478;SDS011;16437;41.836;23.480;2022-12-05T13:46:21;21.20;;;13.38;;
29478;SDS011;16437;41.836;23.480;2022-12-05T13:51:48;22.73;;;13.45;;
29478;SDS011;16437;41.836;23.480;2022-12-05T13:58:02;22.32;;;14.65;;
29478;SDS011;16437;41.836;23.480;2022-12-05T14:03:12;23.38;;;14.93;;
29478;SDS011;16437;41.836;23.480;2022-12-05T14:08:53;24.92;;;15.18;;
29478;SDS011;16437;41.836;23.480;2022-12-05T14:25:47;23.42;;;14.13;;
29478;SDS011;16437;41.836;23.480;2022-12-05T14:43:01;21.25;;;13.58;;
29478;SDS011;16437;41.836;23.480;2022-12-05T14:48:42;23.10;;;14.57;;
29478;SDS011;16437;41.836;23.480;2022-12-05T14:54:17;22.58;;;13.58;;
29478;SDS011;16437;41.836;23.480;2022-12-05T15:10:49;19.85;;;13.75;;
29478;SDS011;16437;41.836;23.480;2022-12-05T15:16:17;19.98;;;13.50;;
29478;SDS011;16437;41.836;23.480;2022-12-05T15:21:47;21.12;;;14.43;;
29478;SDS011;16437;41.836;23.480;2022-12-05T15:27:15;20.45;;;13.80;;
29478;SDS011;16437;41.836;23.480;2022-12-05T15:32:42;22.73;;;14.15;;
29478;SDS011;16437;41.836;23.480;2022-12-05T15:38:14;21.45;;;13.48;;
29478;SDS011;16437;41.836;23.480;2022-12-05T15:43:38;22.85;;;14.13;;
29478;SDS011;16437;41.836;23.480;2022-12-05T15:49:15;20.95;;;14.03;;
29478;SDS011;16437;41.836;23.480;2022-12-05T15:54:42;21.15;;;13.93;;
29478;SDS011;16437;41.836;23.480;2022-12-05T16:00:13;24.27;;;15.15;;
29478;SDS011;16437;41.836;23.480;2022-12-05T16:11:13;24.75;;;15.45;;
29478;SDS011;16437;41.836;23.480;2022-12-05T16:16:40;24.55;;;15.18;;
29478;SDS011;16437;41.836;23.480;2022-12-05T16:22:07;24.23;;;16.48;;
29478;SDS011;16437;41.836;23.480;2022-12-05T16:27:35;25.88;;;16.85;;
29478;SDS011;16437;41.836;23.480;2022-12-05T16:38:40;29.15;;;18.85;;
29478;SDS011;16437;41.836;23.480;2022-12-05T16:44:52;27.17;;;17.87;;
29478;SDS011;16437;41.836;23.480;2022-12-05T16:49:54;30.92;;;18.37;;
29478;SDS011;16437;41.836;23.480;2022-12-05T16:55:21;30.43;;;18.98;;
29478;SDS011;16437;41.836;23.480;2022-12-05T17:00:48;27.27;;;17.87;;
29478;SDS011;16437;41.836;23.480;2022-12-05T17:06:15;28.75;;;18.45;;
29478;SDS011;16437;41.836;23.480;2022-12-05T17:11:46;28.07;;;18.90;;
29478;SDS011;16437;41.836;23.480;2022-12-05T17:17:15;28.85;;;18.50;;
29478;SDS011;16437;41.836;23.480;2022-12-05T17:22:42;29.35;;;18.60;;
29478;SDS011;16437;41.836;23.480;2022-12-05T17:28:08;33.73;;;20.15;;
29478;SDS011;16437;41.836;23.480;2022-12-05T17:33:35;29.50;;;19.25;;
29478;SDS011;16437;41.836;23.480;2022-12-05T17:39:01;29.45;;;18.65;;
29478;SDS011;16437;41.836;23.480;2022-12-05T17:44:28;31.20;;;19.52;;
29478;SDS011;16437;41.836;23.480;2022-12-05T17:49:54;28.98;;;18.92;;
29478;SDS011;16437;41.836;23.480;2022-12-05T17:55:22;31.33;;;20.05;;
29478;SDS011;16437;41.836;23.480;2022-12-05T18:00:51;31.52;;;20.08;;
29478;SDS011;16437;41.836;23.480;2022-12-05T18:06:17;30.85;;;19.48;;
29478;SDS011;16437;41.836;23.480;2022-12-05T18:11:44;31.50;;;19.55;;
29478;SDS011;16437;41.836;23.480;2022-12-05T18:17:10;30.17;;;19.15;;
29478;SDS011;16437;41.836;23.480;2022-12-05T18:22:36;33.25;;;20.08;;
29478;SDS011;16437;41.836;23.480;2022-12-05T18:28:03;31.23;;;19.70;;
29478;SDS011;16437;41.836;23.480;2022-12-05T18:33:30;30.43;;;19.82;;
29478;SDS011;16437;41.836;23.480;2022-12-05T18:38:56;29.95;;;18.92;;
29478;SDS011;16437;41.836;23.480;2022-12-05T18:44:24;29.27;;;18.50;;
29478;SDS011;16437;41.836;23.480;2022-12-05T18:49:51;28.15;;;18.32;;
29478;SDS011;16437;41.836;23.480;2022-12-05T18:55:17;30.70;;;19.23;;
29478;SDS011;16437;41.836;23.480;2022-12-05T19:00:43;30.08;;;18.17;;
29478;SDS011;16437;41.836;23.480;2022-12-05T19:06:14;27.22;;;18.05;;
29478;SDS011;16437;41.836;23.480;2022-12-05T19:11:45;29.37;;;18.42;;
29478;SDS011;16437;41.836;23.480;2022-12-05T19:17:13;30.95;;;18.67;;
29478;SDS011;16437;41.836;23.480;2022-12-05T19:22:40;30.70;;;19.23;;
29478;SDS011;16437;41.836;23.480;2022-12-05T19:28:06;32.00;;;19.00;;
29478;SDS011;16437;41.836;23.480;2022-12-05T19:33:33;30.02;;;18.75;;
29478;SDS011;16437;41.836;23.480;2022-12-05T19:39:12;28.87;;;18.60;;
29478;SDS011;16437;41.836;23.480;2022-12-05T19:44:36;32.50;;;19.45;;
29478;SDS011;16437;41.836;23.480;2022-12-05T19:50:03;31.07;;;19.27;;
29478;SDS011;16437;41.836;23.480;2022-12-05T19:55:30;31.00;;;20.12;;
29478;SDS011;16437;41.836;23.480;2022-12-05T20:00:56;30.05;;;19.73;;
29478;SDS011;16437;41.836;23.480;2022-12-05T20:06:35;33.58;;;20.68;;
29478;SDS011;16437;41.836;23.480;2022-12-05T20:12:03;33.40;;;21.10;;
29478;SDS011;16437;41.836;23.480;2022-12-05T20:17:30;35.68;;;21.48;;
29478;SDS011;16437;41.836;23.480;2022-12-05T20:22:56;34.67;;;20.82;;
29478;SDS011;16437;41.836;23.480;2022-12-05T20:28:23;34.25;;;20.92;;
29478;SDS011;16437;41.836;23.480;2022-12-05T20:33:49;35.45;;;20.77;;
29478;SDS011;16437;41.836;23.480;2022-12-05T20:39:17;37.80;;;22.00;;
29478;SDS011;16437;41.836;23.480;2022-12-05T20:44:43;34.92;;;20.52;;
29478;SDS011;16437;41.836;23.480;2022-12-05T20:50:10;34.65;;;21.07;;
29478;SDS011;16437;41.836;23.480;2022-12-05T20:55:37;34.45;;;21.35;;
29478;SDS011;16437;41.836;23.480;2022-12-05T21:01:04;33.50;;;21.52;;
29478;SDS011;16437;41.836;23.480;2022-12-05T21:06:33;35.43;;;21.93;;
29478;SDS011;16437;41.836;23.480;2022-12-05T21:12:02;33.28;;;20.65;;
29478;SDS011;16437;41.836;23.480;2022-12-05T21:17:29;32.42;;;20.65;;
29478;SDS011;16437;41.836;23.480;2022-12-05T21:22:55;34.90;;;21.93;;
29478;SDS011;16437;41.836;23.480;2022-12-05T21:28:22;34.63;;;21.82;;
29478;SDS011;16437;41.836;23.480;2022-12-05T21:33:50;37.30;;;22.22;;
29478;SDS011;16437;41.836;23.480;2022-12-05T21:39:17;35.70;;;21.75;;
29478;SDS011;16437;41.836;23.480;2022-12-05T21:44:44;34.50;;;21.48;;
29478;SDS011;16437;41.836;23.480;2022-12-05T21:50:11;36.35;;;22.30;;
29478;SDS011;16437;41.836;23.480;2022-12-05T21:55:37;35.90;;;21.52;;
29478;SDS011;16437;41.836;23.480;2022-12-05T22:01:05;33.13;;;20.85;;
29478;SDS011;16437;41.836;23.480;2022-12-05T22:06:32;35.65;;;21.62;;
29478;SDS011;16437;41.836;23.480;2022-12-05T22:11:58;33.60;;;20.90;;
29478;SDS011;16437;41.836;23.480;2022-12-05T22:17:25;35.92;;;21.45;;
29478;SDS011;16437;41.836;23.480;2022-12-05T22:22:51;33.63;;;21.15;;
29478;SDS011;16437;41.836;23.480;2022-12-05T22:28:17;36.70;;;22.30;;
29478;SDS011;16437;41.836;23.480;2022-12-05T22:33:44;37.13;;;21.73;;
29478;SDS011;16437;41.836;23.480;2022-12-05T22:39:10;33.78;;;20.60;;
29478;SDS011;16437;41.836;23.480;2022-12-05T22:44:37;33.13;;;20.20;;
29478;SDS011;16437;41.836;23.480;2022-12-05T22:50:03;33.20;;;21.55;;
29478;SDS011;16437;41.836;23.480;2022-12-05T22:55:31;32.90;;;20.48;;
29478;SDS011;16437;41.836;23.480;2022-12-05T23:00:59;32.73;;;20.52;;
29478;SDS011;16437;41.836;23.480;2022-12-05T23:06:39;33.08;;;20.50;;
29478;SDS011;16437;41.836;23.480;2022-12-05T23:12:05;31.70;;;19.90;;
29478;SDS011;16437;41.836;23.480;2022-12-05T23:17:33;31.80;;;19.35;;
29478;SDS011;16437;41.836;23.480;2022-12-05T23:22:59;33.00;;;19.98;;
29478;SDS011;16437;41.836;23.480;2022-12-05T23:28:26;33.33;;;20.17;;
29478;SDS011;16437;41.836;23.480;2022-12-05T23:33:52;31.42;;;20.05;;
29478;SDS011;16437;41.836;23.480;2022-12-05T23:39:19;30.95;;;19.23;;
29478;SDS011;16437;41.836;23.480;2022-12-05T23:44:45;28.02;;;17.62;;
29478;SDS011;16437;41.836;23.480;2022-12-05T23:50:12;30.27;;;18.07;;
29478;SDS011;16437;41.836;23.480;2022-12-05T23:55:39;29.40;;;17.57;;
